sensor_id;sensor_type;location;lat;lon;timestamp;temperature;humidity
11035;DHT22;5571;48.110;-1.706;2023-11-19T00:00:27;14.70;99.90
11035;DHT22;5571;48.110;-1.706;2023-11-19T00:02:55;14.70;99.90
11035;DHT22;5571;48.110;-1.706;2023-11-19T00:05:21;14.60;99.90
11035;DHT22;5571;48.110;-1.706;2023-11-19T00:07:46;14.60;99.90
11035;DHT22;5571;48.110;-1.706;2023-11-19T00:10:14;14.60;99.90
11035;DHT22;5571;48.110;-1.706;2023-11-19T00:12:42;14.60;99.90
11035;DHT22;5571;48.110;-1.706;2023-11-19T00:15:08;14.60;99.90
11035;DHT22;5571;48.110;-1.706;2023-11-19T00:17:44;14.60;99.90
11035;DHT22;5571;48.110;-1.706;2023-11-19T00:20:11;14.60;99.90
11035;DHT22;5571;48.110;-1.706;2023-11-19T00:22:37;14.60;99.90
11035;DHT22;5571;48.110;-1.706;2023-11-19T00:25:03;14.50;99.90
11035;DHT22;5571;48.110;-1.706;2023-11-19T00:27:29;14.50;99.90
11035;DHT22;5571;48.110;-1.706;2023-11-19T00:29:54;14.50;99.90
11035;DHT22;5571;48.110;-1.706;2023-11-19T00:32:22;14.50;99.90
11035;DHT22;5571;48.110;-1.706;2023-11-19T00:34:47;14.40;99.90
11035;DHT22;5571;48.110;-1.706;2023-11-19T00:37:16;14.40;99.90
11035;DHT22;5571;48.110;-1.706;2023-11-19T00:39:42;14.40;99.90
11035;DHT22;5571;48.110;-1.706;2023-11-19T00:42:09;14.40;99.90
11035;DHT22;5571;48.110;-1.706;2023-11-19T00:44:35;14.30;99.90
11035;DHT22;5571;48.110;-1.706;2023-11-19T00:47:01;14.30;99.90
11035;DHT22;5571;48.110;-1.706;2023-11-19T00:49:27;14.30;99.90
11035;DHT22;5571;48.110;-1.706;2023-11-19T00:51:52;14.30;99.90
11035;DHT22;5571;48.110;-1.706;2023-11-19T00:54:18;14.30;99.90
11035;DHT22;5571;48.110;-1.706;2023-11-19T00:56:44;14.20;99.90
11035;DHT22;5571;48.110;-1.706;2023-11-19T00:59:10;14.20;99.90
11035;DHT22;5571;48.110;-1.706;2023-11-19T01:01:36;14.20;99.90
11035;DHT22;5571;48.110;-1.706;2023-11-19T01:04:01;14.20;99.90
11035;DHT22;5571;48.110;-1.706;2023-11-19T01:06:31;14.10;99.90
11035;DHT22;5571;48.110;-1.706;2023-11-19T01:08:57;14.10;99.90
11035;DHT22;5571;48.110;-1.706;2023-11-19T01:11:23;14.10;99.90
11035;DHT22;5571;48.110;-1.706;2023-11-19T01:13:49;14.10;99.90
11035;DHT22;5571;48.110;-1.706;2023-11-19T01:16:15;14.10;99.90
11035;DHT22;5571;48.110;-1.706;2023-11-19T01:18:41;14.10;99.90
11035;DHT22;5571;48.110;-1.706;2023-11-19T01:21:07;14.10;99.90
11035;DHT22;5571;48.110;-1.706;2023-11-19T01:23:32;14.10;99.90
11035;DHT22;5571;48.110;-1.706;2023-11-19T01:25:58;14.10;99.90
11035;DHT22;5571;48.110;-1.706;2023-11-19T01:28:24;14.10;99.90
11035;DHT22;5571;48.110;-1.706;2023-11-19T01:30:53;14.00;99.90
11035;DHT22;5571;48.110;-1.706;2023-11-19T01:33:18;14.10;99.90
11035;DHT22;5571;48.110;-1.706;2023-11-19T01:35:44;14.10;99.90
11035;DHT22;5571;48.110;-1.706;2023-11-19T01:38:10;14.00;99.90
11035;DHT22;5571;48.110;-1.706;2023-11-19T01:40:36;14.00;99.90
11035;DHT22;5571;48.110;-1.706;2023-11-19T01:43:03;14.00;99.90
11035;DHT22;5571;48.110;-1.706;2023-11-19T01:45:30;13.90;99.90
11035;DHT22;5571;48.110;-1.706;2023-11-19T01:48:02;14.00;99.90
11035;DHT22;5571;48.110;-1.706;2023-11-19T01:50:30;13.90;99.90
11035;DHT22;5571;48.110;-1.706;2023-11-19T01:52:57;14.00;99.90
11035;DHT22;5571;48.110;-1.706;2023-11-19T01:55:24;13.90;99.90
11035;DHT22;5571;48.110;-1.706;2023-11-19T01:57:49;13.90;99.90
11035;DHT22;5571;48.110;-1.706;2023-11-19T02:00:16;13.80;99.90
11035;DHT22;5571;48.110;-1.706;2023-11-19T02:02:46;13.90;99.90
11035;DHT22;5571;48.110;-1.706;2023-11-19T02:05:12;13.80;99.90
11035;DHT22;5571;48.110;-1.706;2023-11-19T02:07:38;13.80;99.90
11035;DHT22;5571;48.110;-1.706;2023-11-19T02:10:04;13.80;99.90
11035;DHT22;5571;48.110;-1.706;2023-11-19T02:12:31;13.80;99.90
11035;DHT22;5571;48.110;-1.706;2023-11-19T02:15:01;13.80;99.90
11035;DHT22;5571;48.110;-1.706;2023-11-19T02:17:29;13.70;99.90
11035;DHT22;5571;48.110;-1.706;2023-11-19T02:19:57;13.70;99.90
11035;DHT22;5571;48.110;-1.706;2023-11-19T02:22:24;13.70;99.90
11035;DHT22;5571;48.110;-1.706;2023-11-19T02:24:51;13.70;99.90
11035;DHT22;5571;48.110;-1.706;2023-11-19T02:29:54;13.60;99.90
11035;DHT22;5571;48.110;-1.706;2023-11-19T02:32:20;13.60;99.90
11035;DHT22;5571;48.110;-1.706;2023-11-19T02:34:45;13.50;99.90
11035;DHT22;5571;48.110;-1.706;2023-11-19T02:37:11;13.50;99.90
11035;DHT22;5571;48.110;-1.706;2023-11-19T02:39:37;13.50;99.90
11035;DHT22;5571;48.110;-1.706;2023-11-19T02:42:03;13.50;99.90
11035;DHT22;5571;48.110;-1.706;2023-11-19T02:44:28;13.50;99.90
11035;DHT22;5571;48.110;-1.706;2023-11-19T02:46:56;13.40;99.90
11035;DHT22;5571;48.110;-1.706;2023-11-19T02:49:24;13.40;99.90
11035;DHT22;5571;48.110;-1.706;2023-11-19T02:51:50;13.40;99.90
11035;DHT22;5571;48.110;-1.706;2023-11-19T02:54:15;13.40;99.90
11035;DHT22;5571;48.110;-1.706;2023-11-19T02:56:44;13.40;99.90
11035;DHT22;5571;48.110;-1.706;2023-11-19T02:59:13;13.30;99.90
11035;DHT22;5571;48.110;-1.706;2023-11-19T03:01:52;13.40;99.90
11035;DHT22;5571;48.110;-1.706;2023-11-19T03:04:18;13.30;99.90
11035;DHT22;5571;48.110;-1.706;2023-11-19T03:06:45;13.30;99.90
11035;DHT22;5571;48.110;-1.706;2023-11-19T03:09:11;13.30;99.90
11035;DHT22;5571;48.110;-1.706;2023-11-19T03:11:37;13.30;99.90
11035;DHT22;5571;48.110;-1.706;2023-11-19T03:14:03;13.30;99.90
11035;DHT22;5571;48.110;-1.706;2023-11-19T03:16:28;13.20;99.90
11035;DHT22;5571;48.110;-1.706;2023-11-19T03:18:54;13.30;99.90
11035;DHT22;5571;48.110;-1.706;2023-11-19T03:21:30;13.30;99.90
11035;DHT22;5571;48.110;-1.706;2023-11-19T03:23:57;13.20;99.90
11035;DHT22;5571;48.110;-1.706;2023-11-19T03:26:26;13.30;99.90
11035;DHT22;5571;48.110;-1.706;2023-11-19T03:28:52;13.20;99.90
11035;DHT22;5571;48.110;-1.706;2023-11-19T03:31:18;13.20;99.90
11035;DHT22;5571;48.110;-1.706;2023-11-19T03:33:44;13.20;99.90
11035;DHT22;5571;48.110;-1.706;2023-11-19T03:36:10;13.10;99.90
11035;DHT22;5571;48.110;-1.706;2023-11-19T03:38:36;13.10;99.90
11035;DHT22;5571;48.110;-1.706;2023-11-19T03:41:13;13.10;99.90
11035;DHT22;5571;48.110;-1.706;2023-11-19T03:43:39;13.10;99.90
11035;DHT22;5571;48.110;-1.706;2023-11-19T03:46:15;13.10;99.90
11035;DHT22;5571;48.110;-1.706;2023-11-19T03:48:41;13.00;99.90
11035;DHT22;5571;48.110;-1.706;2023-11-19T03:51:06;13.00;99.90
11035;DHT22;5571;48.110;-1.706;2023-11-19T03:53:32;13.00;99.90
11035;DHT22;5571;48.110;-1.706;2023-11-19T03:55:57;13.00;99.90
11035;DHT22;5571;48.110;-1.706;2023-11-19T03:58:24;12.90;99.90
11035;DHT22;5571;48.110;-1.706;2023-11-19T04:00:49;12.90;99.90
11035;DHT22;5571;48.110;-1.706;2023-11-19T04:03:15;12.90;99.90
11035;DHT22;5571;48.110;-1.706;2023-11-19T04:05:40;12.90;99.90
11035;DHT22;5571;48.110;-1.706;2023-11-19T04:08:07;12.90;99.90
11035;DHT22;5571;48.110;-1.706;2023-11-19T04:10:32;12.80;99.90
11035;DHT22;5571;48.110;-1.706;2023-11-19T04:12:58;12.80;99.90
11035;DHT22;5571;48.110;-1.706;2023-11-19T04:15:23;12.80;99.90
11035;DHT22;5571;48.110;-1.706;2023-11-19T04:17:49;12.80;99.90
11035;DHT22;5571;48.110;-1.706;2023-11-19T04:20:15;12.80;99.90
11035;DHT22;5571;48.110;-1.706;2023-11-19T04:22:41;12.70;99.90
11035;DHT22;5571;48.110;-1.706;2023-11-19T04:25:07;12.70;99.90
11035;DHT22;5571;48.110;-1.706;2023-11-19T04:27:32;12.70;99.90
11035;DHT22;5571;48.110;-1.706;2023-11-19T04:29:58;12.80;99.90
11035;DHT22;5571;48.110;-1.706;2023-11-19T04:32:23;12.80;99.90
11035;DHT22;5571;48.110;-1.706;2023-11-19T04:34:50;12.80;99.90
11035;DHT22;5571;48.110;-1.706;2023-11-19T04:37:16;12.70;99.90
11035;DHT22;5571;48.110;-1.706;2023-11-19T04:39:44;12.70;99.90
11035;DHT22;5571;48.110;-1.706;2023-11-19T04:42:10;12.70;99.90
11035;DHT22;5571;48.110;-1.706;2023-11-19T04:44:36;12.70;99.90
11035;DHT22;5571;48.110;-1.706;2023-11-19T04:47:01;12.70;99.90
11035;DHT22;5571;48.110;-1.706;2023-11-19T04:49:27;12.70;99.90
11035;DHT22;5571;48.110;-1.706;2023-11-19T04:51:52;12.70;99.90
11035;DHT22;5571;48.110;-1.706;2023-11-19T04:54:19;12.60;99.90
11035;DHT22;5571;48.110;-1.706;2023-11-19T04:56:47;12.70;99.90
11035;DHT22;5571;48.110;-1.706;2023-11-19T04:59:13;12.70;99.90
11035;DHT22;5571;48.110;-1.706;2023-11-19T05:01:39;12.60;99.90
11035;DHT22;5571;48.110;-1.706;2023-11-19T05:04:05;12.60;99.90
11035;DHT22;5571;48.110;-1.706;2023-11-19T05:06:31;12.60;99.90
11035;DHT22;5571;48.110;-1.706;2023-11-19T05:08:59;12.50;99.90
11035;DHT22;5571;48.110;-1.706;2023-11-19T05:11:26;12.60;99.90
11035;DHT22;5571;48.110;-1.706;2023-11-19T05:13:54;12.50;99.90
11035;DHT22;5571;48.110;-1.706;2023-11-19T05:16:19;12.50;99.90
11035;DHT22;5571;48.110;-1.706;2023-11-19T05:18:46;12.50;99.90
11035;DHT22;5571;48.110;-1.706;2023-11-19T05:21:12;12.50;99.90
11035;DHT22;5571;48.110;-1.706;2023-11-19T05:23:38;12.50;99.90
11035;DHT22;5571;48.110;-1.706;2023-11-19T05:26:04;12.50;99.90
11035;DHT22;5571;48.110;-1.706;2023-11-19T05:28:30;12.50;99.90
11035;DHT22;5571;48.110;-1.706;2023-11-19T05:30:56;12.50;99.90
11035;DHT22;5571;48.110;-1.706;2023-11-19T05:33:21;12.50;99.90
11035;DHT22;5571;48.110;-1.706;2023-11-19T05:35:47;12.50;99.90
11035;DHT22;5571;48.110;-1.706;2023-11-19T05:38:14;12.50;99.90
11035;DHT22;5571;48.110;-1.706;2023-11-19T05:40:40;12.50;99.90
11035;DHT22;5571;48.110;-1.706;2023-11-19T05:43:06;12.50;99.90
11035;DHT22;5571;48.110;-1.706;2023-11-19T05:45:32;12.50;99.90
11035;DHT22;5571;48.110;-1.706;2023-11-19T05:47:58;12.50;99.90
11035;DHT22;5571;48.110;-1.706;2023-11-19T05:50:23;12.50;99.90
11035;DHT22;5571;48.110;-1.706;2023-11-19T05:52:50;12.50;99.90
11035;DHT22;5571;48.110;-1.706;2023-11-19T05:55:15;12.40;99.90
11035;DHT22;5571;48.110;-1.706;2023-11-19T05:57:41;12.40;99.90
11035;DHT22;5571;48.110;-1.706;2023-11-19T06:00:07;12.30;99.90
11035;DHT22;5571;48.110;-1.706;2023-11-19T06:02:34;12.30;99.90
11035;DHT22;5571;48.110;-1.706;2023-11-19T06:05:00;12.40;99.90
11035;DHT22;5571;48.110;-1.706;2023-11-19T06:07:26;12.30;99.90
11035;DHT22;5571;48.110;-1.706;2023-11-19T06:09:52;12.30;99.90
11035;DHT22;5571;48.110;-1.706;2023-11-19T06:12:17;12.30;99.90
11035;DHT22;5571;48.110;-1.706;2023-11-19T06:14:43;12.30;99.90
11035;DHT22;5571;48.110;-1.706;2023-11-19T06:17:09;12.40;99.90
11035;DHT22;5571;48.110;-1.706;2023-11-19T06:19:36;12.30;99.90
11035;DHT22;5571;48.110;-1.706;2023-11-19T06:22:02;12.40;99.90
11035;DHT22;5571;48.110;-1.706;2023-11-19T06:24:28;12.30;99.90
11035;DHT22;5571;48.110;-1.706;2023-11-19T06:26:53;12.40;99.90
11035;DHT22;5571;48.110;-1.706;2023-11-19T06:29:19;12.40;99.90
11035;DHT22;5571;48.110;-1.706;2023-11-19T06:31:45;12.30;99.90
11035;DHT22;5571;48.110;-1.706;2023-11-19T06:34:14;12.30;99.90
11035;DHT22;5571;48.110;-1.706;2023-11-19T06:36:39;12.20;99.90
11035;DHT22;5571;48.110;-1.706;2023-11-19T06:39:05;12.30;99.90
11035;DHT22;5571;48.110;-1.706;2023-11-19T06:41:31;12.30;99.90
11035;DHT22;5571;48.110;-1.706;2023-11-19T06:43:56;12.30;99.90
11035;DHT22;5571;48.110;-1.706;2023-11-19T06:46:22;12.30;99.90
11035;DHT22;5571;48.110;-1.706;2023-11-19T06:48:48;12.20;99.90
11035;DHT22;5571;48.110;-1.706;2023-11-19T06:51:13;12.20;99.90
11035;DHT22;5571;48.110;-1.706;2023-11-19T06:53:39;12.20;99.90
11035;DHT22;5571;48.110;-1.706;2023-11-19T06:56:23;12.20;99.90
11035;DHT22;5571;48.110;-1.706;2023-11-19T06:58:50;12.20;99.90
11035;DHT22;5571;48.110;-1.706;2023-11-19T07:01:16;12.20;99.90
11035;DHT22;5571;48.110;-1.706;2023-11-19T07:03:42;12.20;99.90
11035;DHT22;5571;48.110;-1.706;2023-11-19T07:06:07;12.20;99.90
11035;DHT22;5571;48.110;-1.706;2023-11-19T07:08:34;12.20;99.90
11035;DHT22;5571;48.110;-1.706;2023-11-19T07:10:59;12.10;99.90
11035;DHT22;5571;48.110;-1.706;2023-11-19T07:13:25;12.10;99.90
11035;DHT22;5571;48.110;-1.706;2023-11-19T07:15:53;12.00;99.90
11035;DHT22;5571;48.110;-1.706;2023-11-19T07:18:19;12.00;99.90
11035;DHT22;5571;48.110;-1.706;2023-11-19T07:20:47;12.00;99.90
11035;DHT22;5571;48.110;-1.706;2023-11-19T07:23:13;12.00;99.90
11035;DHT22;5571;48.110;-1.706;2023-11-19T07:25:42;12.00;99.90
11035;DHT22;5571;48.110;-1.706;2023-11-19T07:28:08;12.00;99.90
11035;DHT22;5571;48.110;-1.706;2023-11-19T07:30:35;12.00;99.90
11035;DHT22;5571;48.110;-1.706;2023-11-19T07:33:01;11.90;99.90
11035;DHT22;5571;48.110;-1.706;2023-11-19T07:35:29;11.90;99.90
11035;DHT22;5571;48.110;-1.706;2023-11-19T07:37:56;11.90;99.90
11035;DHT22;5571;48.110;-1.706;2023-11-19T07:40:23;11.90;99.90
11035;DHT22;5571;48.110;-1.706;2023-11-19T07:42:49;11.90;99.90
11035;DHT22;5571;48.110;-1.706;2023-11-19T07:45:14;11.90;99.90
11035;DHT22;5571;48.110;-1.706;2023-11-19T07:47:40;12.00;99.90
11035;DHT22;5571;48.110;-1.706;2023-11-19T07:50:06;12.00;99.90
11035;DHT22;5571;48.110;-1.706;2023-11-19T07:52:31;12.00;99.90
11035;DHT22;5571;48.110;-1.706;2023-11-19T07:54:57;12.00;99.90
11035;DHT22;5571;48.110;-1.706;2023-11-19T07:57:22;12.00;99.90
11035;DHT22;5571;48.110;-1.706;2023-11-19T07:59:49;12.00;99.90
11035;DHT22;5571;48.110;-1.706;2023-11-19T08:02:15;12.10;99.90
11035;DHT22;5571;48.110;-1.706;2023-11-19T08:04:40;12.10;99.90
11035;DHT22;5571;48.110;-1.706;2023-11-19T08:07:11;12.10;99.90
11035;DHT22;5571;48.110;-1.706;2023-11-19T08:09:38;12.10;99.90
11035;DHT22;5571;48.110;-1.706;2023-11-19T08:12:04;12.10;99.90
11035;DHT22;5571;48.110;-1.706;2023-11-19T08:14:30;12.10;99.90
11035;DHT22;5571;48.110;-1.706;2023-11-19T08:16:56;12.20;99.90
11035;DHT22;5571;48.110;-1.706;2023-11-19T08:19:22;12.10;99.90
11035;DHT22;5571;48.110;-1.706;2023-11-19T08:21:48;12.20;99.90
11035;DHT22;5571;48.110;-1.706;2023-11-19T08:24:13;12.20;99.90
11035;DHT22;5571;48.110;-1.706;2023-11-19T08:26:39;12.20;99.90
11035;DHT22;5571;48.110;-1.706;2023-11-19T08:29:05;12.20;99.90
11035;DHT22;5571;48.110;-1.706;2023-11-19T08:31:31;12.30;99.90
11035;DHT22;5571;48.110;-1.706;2023-11-19T08:33:56;12.30;99.90
11035;DHT22;5571;48.110;-1.706;2023-11-19T08:36:22;12.30;99.90
11035;DHT22;5571;48.110;-1.706;2023-11-19T08:38:47;12.30;99.90
11035;DHT22;5571;48.110;-1.706;2023-11-19T08:41:13;12.40;99.90
11035;DHT22;5571;48.110;-1.706;2023-11-19T08:43:39;12.40;99.90
11035;DHT22;5571;48.110;-1.706;2023-11-19T08:46:10;12.40;99.90
11035;DHT22;5571;48.110;-1.706;2023-11-19T08:48:36;12.50;99.90
11035;DHT22;5571;48.110;-1.706;2023-11-19T08:51:01;12.50;99.90
11035;DHT22;5571;48.110;-1.706;2023-11-19T08:53:27;12.60;99.90
11035;DHT22;5571;48.110;-1.706;2023-11-19T08:55:52;12.60;99.90
11035;DHT22;5571;48.110;-1.706;2023-11-19T08:58:18;12.70;99.90
11035;DHT22;5571;48.110;-1.706;2023-11-19T09:00:43;12.70;99.90
11035;DHT22;5571;48.110;-1.706;2023-11-19T09:03:09;12.80;99.90
11035;DHT22;5571;48.110;-1.706;2023-11-19T09:05:35;12.90;99.90
11035;DHT22;5571;48.110;-1.706;2023-11-19T09:08:00;12.90;99.90
11035;DHT22;5571;48.110;-1.706;2023-11-19T09:10:26;13.00;99.90
11035;DHT22;5571;48.110;-1.706;2023-11-19T09:12:52;13.00;99.90
11035;DHT22;5571;48.110;-1.706;2023-11-19T09:15:18;13.10;99.90
11035;DHT22;5571;48.110;-1.706;2023-11-19T09:17:43;13.20;99.90
11035;DHT22;5571;48.110;-1.706;2023-11-19T09:20:11;13.20;99.90
11035;DHT22;5571;48.110;-1.706;2023-11-19T09:22:40;13.30;99.90
11035;DHT22;5571;48.110;-1.706;2023-11-19T09:25:06;13.40;99.90
11035;DHT22;5571;48.110;-1.706;2023-11-19T09:27:33;13.50;99.90
11035;DHT22;5571;48.110;-1.706;2023-11-19T09:29:58;13.60;99.90
11035;DHT22;5571;48.110;-1.706;2023-11-19T09:32:24;13.60;99.90
11035;DHT22;5571;48.110;-1.706;2023-11-19T09:34:50;13.80;99.90
11035;DHT22;5571;48.110;-1.706;2023-11-19T09:37:16;13.80;99.90
11035;DHT22;5571;48.110;-1.706;2023-11-19T09:39:42;13.90;99.90
11035;DHT22;5571;48.110;-1.706;2023-11-19T09:42:10;14.00;99.90
11035;DHT22;5571;48.110;-1.706;2023-11-19T09:44:38;13.90;99.90
11035;DHT22;5571;48.110;-1.706;2023-11-19T09:47:05;13.90;99.90
11035;DHT22;5571;48.110;-1.706;2023-11-19T09:49:32;13.90;99.90
11035;DHT22;5571;48.110;-1.706;2023-11-19T09:51:58;13.90;99.90
11035;DHT22;5571;48.110;-1.706;2023-11-19T09:54:24;13.90;99.90
11035;DHT22;5571;48.110;-1.706;2023-11-19T09:56:50;14.10;99.90
11035;DHT22;5571;48.110;-1.706;2023-11-19T09:59:16;14.20;99.90
11035;DHT22;5571;48.110;-1.706;2023-11-19T10:01:43;14.20;99.90
11035;DHT22;5571;48.110;-1.706;2023-11-19T10:04:09;14.20;99.90
11035;DHT22;5571;48.110;-1.706;2023-11-19T10:06:37;14.20;99.90
11035;DHT22;5571;48.110;-1.706;2023-11-19T10:09:03;14.30;99.90
11035;DHT22;5571;48.110;-1.706;2023-11-19T10:11:30;14.40;99.90
11035;DHT22;5571;48.110;-1.706;2023-11-19T10:13:56;14.40;99.90
11035;DHT22;5571;48.110;-1.706;2023-11-19T10:16:28;14.60;99.90
11035;DHT22;5571;48.110;-1.706;2023-11-19T10:18:55;14.70;99.90
11035;DHT22;5571;48.110;-1.706;2023-11-19T10:21:21;14.60;99.90
11035;DHT22;5571;48.110;-1.706;2023-11-19T10:23:48;14.70;99.90
11035;DHT22;5571;48.110;-1.706;2023-11-19T10:26:15;14.90;99.90
11035;DHT22;5571;48.110;-1.706;2023-11-19T10:28:41;15.10;99.90
11035;DHT22;5571;48.110;-1.706;2023-11-19T10:31:09;15.10;99.90
11035;DHT22;5571;48.110;-1.706;2023-11-19T10:33:35;15.20;99.90
11035;DHT22;5571;48.110;-1.706;2023-11-19T10:36:01;15.30;99.90
11035;DHT22;5571;48.110;-1.706;2023-11-19T10:38:26;15.40;99.90
11035;DHT22;5571;48.110;-1.706;2023-11-19T10:40:53;15.40;99.90
11035;DHT22;5571;48.110;-1.706;2023-11-19T10:43:20;15.50;99.90
11035;DHT22;5571;48.110;-1.706;2023-11-19T10:45:47;15.50;99.90
11035;DHT22;5571;48.110;-1.706;2023-11-19T10:48:13;15.50;99.90
11035;DHT22;5571;48.110;-1.706;2023-11-19T10:50:40;15.50;99.90
11035;DHT22;5571;48.110;-1.706;2023-11-19T10:53:08;15.40;99.90
11035;DHT22;5571;48.110;-1.706;2023-11-19T10:55:36;15.50;99.90
11035;DHT22;5571;48.110;-1.706;2023-11-19T10:58:15;15.50;99.90
11035;DHT22;5571;48.110;-1.706;2023-11-19T11:00:54;15.50;99.90
11035;DHT22;5571;48.110;-1.706;2023-11-19T11:03:24;15.40;99.90
11035;DHT22;5571;48.110;-1.706;2023-11-19T11:05:51;15.40;99.90
11035;DHT22;5571;48.110;-1.706;2023-11-19T11:08:18;15.30;99.90
11035;DHT22;5571;48.110;-1.706;2023-11-19T11:10:54;15.20;99.90
11035;DHT22;5571;48.110;-1.706;2023-11-19T11:13:22;15.20;99.90
11035;DHT22;5571;48.110;-1.706;2023-11-19T11:15:48;15.20;99.90
11035;DHT22;5571;48.110;-1.706;2023-11-19T11:18:14;15.20;99.90
11035;DHT22;5571;48.110;-1.706;2023-11-19T11:20:40;15.20;99.90
11035;DHT22;5571;48.110;-1.706;2023-11-19T11:37:21;15.80;99.90
11035;DHT22;5571;48.110;-1.706;2023-11-19T11:39:51;15.60;99.90
11035;DHT22;5571;48.110;-1.706;2023-11-19T11:45:07;15.50;99.90
11035;DHT22;5571;48.110;-1.706;2023-11-19T11:50:17;15.50;99.90
11035;DHT22;5571;48.110;-1.706;2023-11-19T11:58:03;16.00;99.90
11035;DHT22;5571;48.110;-1.706;2023-11-19T12:00:29;16.30;99.90
11035;DHT22;5571;48.110;-1.706;2023-11-19T12:02:56;16.50;99.90
11035;DHT22;5571;48.110;-1.706;2023-11-19T12:05:22;16.40;99.90
11035;DHT22;5571;48.110;-1.706;2023-11-19T12:07:59;16.20;99.90
11035;DHT22;5571;48.110;-1.706;2023-11-19T12:10:29;16.00;99.90
11035;DHT22;5571;48.110;-1.706;2023-11-19T12:13:00;16.00;99.90
11035;DHT22;5571;48.110;-1.706;2023-11-19T12:15:26;16.10;99.90
11035;DHT22;5571;48.110;-1.706;2023-11-19T12:17:54;16.00;99.90
11035;DHT22;5571;48.110;-1.706;2023-11-19T12:20:22;15.80;99.90
11035;DHT22;5571;48.110;-1.706;2023-11-19T12:22:48;15.70;99.90
11035;DHT22;5571;48.110;-1.706;2023-11-19T12:25:15;15.80;99.90
11035;DHT22;5571;48.110;-1.706;2023-11-19T12:27:46;16.00;99.90
11035;DHT22;5571;48.110;-1.706;2023-11-19T12:30:12;16.20;99.90
11035;DHT22;5571;48.110;-1.706;2023-11-19T12:32:42;16.20;99.90
11035;DHT22;5571;48.110;-1.706;2023-11-19T12:35:09;16.30;99.90
11035;DHT22;5571;48.110;-1.706;2023-11-19T12:37:45;16.50;99.90
11035;DHT22;5571;48.110;-1.706;2023-11-19T12:40:22;16.70;99.90
11035;DHT22;5571;48.110;-1.706;2023-11-19T12:42:52;16.60;99.90
11035;DHT22;5571;48.110;-1.706;2023-11-19T12:45:21;16.80;99.90
11035;DHT22;5571;48.110;-1.706;2023-11-19T12:47:49;17.00;99.90
11035;DHT22;5571;48.110;-1.706;2023-11-19T12:50:15;17.10;99.90
11035;DHT22;5571;48.110;-1.706;2023-11-19T12:52:43;17.00;99.90
11035;DHT22;5571;48.110;-1.706;2023-11-19T12:55:26;16.90;99.90
11035;DHT22;5571;48.110;-1.706;2023-11-19T12:57:52;17.00;99.90
11035;DHT22;5571;48.110;-1.706;2023-11-19T13:00:21;17.10;99.90
11035;DHT22;5571;48.110;-1.706;2023-11-19T13:02:57;17.10;99.90
11035;DHT22;5571;48.110;-1.706;2023-11-19T13:05:34;17.20;99.90
11035;DHT22;5571;48.110;-1.706;2023-11-19T13:08:04;16.90;99.90
11035;DHT22;5571;48.110;-1.706;2023-11-19T13:10:31;16.80;99.90
11035;DHT22;5571;48.110;-1.706;2023-11-19T13:13:07;16.80;99.90
11035;DHT22;5571;48.110;-1.706;2023-11-19T13:15:37;16.90;99.90
11035;DHT22;5571;48.110;-1.706;2023-11-19T13:18:03;16.90;99.90
11035;DHT22;5571;48.110;-1.706;2023-11-19T13:20:29;16.90;99.90
11035;DHT22;5571;48.110;-1.706;2023-11-19T13:22:58;16.70;99.90
11035;DHT22;5571;48.110;-1.706;2023-11-19T13:25:25;16.50;99.90
11035;DHT22;5571;48.110;-1.706;2023-11-19T13:27:51;16.30;99.90
11035;DHT22;5571;48.110;-1.706;2023-11-19T13:30:16;16.30;99.90
11035;DHT22;5571;48.110;-1.706;2023-11-19T13:32:42;16.30;99.90
11035;DHT22;5571;48.110;-1.706;2023-11-19T13:35:09;16.60;99.90
11035;DHT22;5571;48.110;-1.706;2023-11-19T13:37:35;16.80;99.90
11035;DHT22;5571;48.110;-1.706;2023-11-19T13:40:01;16.90;99.90
11035;DHT22;5571;48.110;-1.706;2023-11-19T13:42:26;16.90;99.90
11035;DHT22;5571;48.110;-1.706;2023-11-19T13:44:52;16.90;99.90
11035;DHT22;5571;48.110;-1.706;2023-11-19T13:47:18;16.60;99.90
11035;DHT22;5571;48.110;-1.706;2023-11-19T13:49:45;16.40;99.90
11035;DHT22;5571;48.110;-1.706;2023-11-19T13:52:10;16.30;99.90
11035;DHT22;5571;48.110;-1.706;2023-11-19T13:54:37;16.30;99.90
11035;DHT22;5571;48.110;-1.706;2023-11-19T13:57:03;16.50;99.90
11035;DHT22;5571;48.110;-1.706;2023-11-19T13:59:32;16.40;99.90
11035;DHT22;5571;48.110;-1.706;2023-11-19T14:01:58;16.20;99.90
11035;DHT22;5571;48.110;-1.706;2023-11-19T14:04:24;16.10;99.90
11035;DHT22;5571;48.110;-1.706;2023-11-19T14:06:50;16.10;99.90
11035;DHT22;5571;48.110;-1.706;2023-11-19T14:09:16;16.10;99.90
11035;DHT22;5571;48.110;-1.706;2023-11-19T14:11:42;16.10;99.90
11035;DHT22;5571;48.110;-1.706;2023-11-19T14:14:08;16.00;99.90
11035;DHT22;5571;48.110;-1.706;2023-11-19T14:16:34;16.10;99.90
11035;DHT22;5571;48.110;-1.706;2023-11-19T14:18:59;16.00;99.90
11035;DHT22;5571;48.110;-1.706;2023-11-19T14:21:25;16.00;99.90
11035;DHT22;5571;48.110;-1.706;2023-11-19T14:23:52;16.10;99.90
11035;DHT22;5571;48.110;-1.706;2023-11-19T14:26:18;16.20;99.90
11035;DHT22;5571;48.110;-1.706;2023-11-19T14:28:43;16.20;99.90
11035;DHT22;5571;48.110;-1.706;2023-11-19T14:31:09;16.50;99.90
11035;DHT22;5571;48.110;-1.706;2023-11-19T14:33:34;16.50;99.90
11035;DHT22;5571;48.110;-1.706;2023-11-19T14:36:01;16.70;99.90
11035;DHT22;5571;48.110;-1.706;2023-11-19T14:38:27;16.70;99.90
11035;DHT22;5571;48.110;-1.706;2023-11-19T14:40:53;16.60;99.90
11035;DHT22;5571;48.110;-1.706;2023-11-19T14:43:18;16.40;99.90
11035;DHT22;5571;48.110;-1.706;2023-11-19T14:45:44;16.30;99.90
11035;DHT22;5571;48.110;-1.706;2023-11-19T14:48:09;16.30;99.90
11035;DHT22;5571;48.110;-1.706;2023-11-19T14:50:35;16.30;99.90
11035;DHT22;5571;48.110;-1.706;2023-11-19T14:53:01;16.10;99.90
11035;DHT22;5571;48.110;-1.706;2023-11-19T14:55:27;15.90;99.90
11035;DHT22;5571;48.110;-1.706;2023-11-19T14:57:53;15.70;99.90
11035;DHT22;5571;48.110;-1.706;2023-11-19T15:00:19;15.60;99.90
11035;DHT22;5571;48.110;-1.706;2023-11-19T15:02:45;15.50;99.90
11035;DHT22;5571;48.110;-1.706;2023-11-19T15:05:10;15.40;99.90
11035;DHT22;5571;48.110;-1.706;2023-11-19T15:07:39;15.30;99.90
11035;DHT22;5571;48.110;-1.706;2023-11-19T15:10:06;15.30;99.90
11035;DHT22;5571;48.110;-1.706;2023-11-19T15:12:39;15.20;99.90
11035;DHT22;5571;48.110;-1.706;2023-11-19T15:15:08;15.20;99.90
11035;DHT22;5571;48.110;-1.706;2023-11-19T15:17:39;15.20;99.90
11035;DHT22;5571;48.110;-1.706;2023-11-19T15:20:05;15.50;99.90
11035;DHT22;5571;48.110;-1.706;2023-11-19T15:22:31;15.60;99.90
11035;DHT22;5571;48.110;-1.706;2023-11-19T15:24:57;15.60;99.90
11035;DHT22;5571;48.110;-1.706;2023-11-19T15:27:22;15.70;99.90
11035;DHT22;5571;48.110;-1.706;2023-11-19T15:29:48;15.80;99.90
11035;DHT22;5571;48.110;-1.706;2023-11-19T15:32:14;15.70;99.90
11035;DHT22;5571;48.110;-1.706;2023-11-19T15:34:39;15.60;99.90
11035;DHT22;5571;48.110;-1.706;2023-11-19T15:37:10;15.40;99.90
11035;DHT22;5571;48.110;-1.706;2023-11-19T15:39:38;15.40;99.90
11035;DHT22;5571;48.110;-1.706;2023-11-19T15:42:04;15.40;99.90
11035;DHT22;5571;48.110;-1.706;2023-11-19T15:44:29;15.20;99.90
11035;DHT22;5571;48.110;-1.706;2023-11-19T15:46:55;15.10;99.90
11035;DHT22;5571;48.110;-1.706;2023-11-19T15:49:21;15.20;99.90
11035;DHT22;5571;48.110;-1.706;2023-11-19T15:51:46;15.10;99.90
11035;DHT22;5571;48.110;-1.706;2023-11-19T15:54:12;15.00;99.90